Terminal Aerodrome Forecast
Issued by NWS Springfield, MO

Home | Current Version | Previous Version | Text Only | Print | Product List | Glossary On
Versions: 1 2 3 4 5 6 7 8 9 10 11 12 13 14 15 16 17 18 19 20 21 22 23 24 25 26 27 28 29 30 31
000
FTUS43 KSGF 280500 RRA
TAFSGF
TAF
KSGF 280537Z 2806/0106 13007KT P6SM SCT020 OVC050
     FM281600 14012KT 3SM -SN OVC015
     FM281900 14010KT 1 1/2SM -SN BR OVC010
     FM282100 13008KT 3/4SM -SN OVC006=

USA.gov is the U.S. government's official web portal to all federal, state and local government web resources and services.